Great Falls, Virginia
Current Conditions -  °F | °C
As of 5:52 PM on Friday 31 Oct 2014 (Local Time) from KIAD Reporting Station
Broken Clouds Broken Clouds  
Wind Chill: 51°   Ceiling: 5500
Heat Index: 51°   Visibility: 10mi
Dew Point: 35°   Wind: 5mph
Humidity: 54%   Direction: 60°ENE
Pressure: 29.86"   Gusts: NA
Location:  39°N, 77.29°W
Report Text: KIAD 312152Z 06004KT 10SM BKN055 BKN150 11/02 A2986 RMK AO2 SLP113 T01060017
Loading
Personal Weather Stations






























Interactive Weather Map
Tropical Storm Tracking
New forecast layout! Learn more

10-Day Weather Forecast

Advertisements
Track Severe Weather on mobile